sensor_id;sensor_type;location;lat;lon;timestamp;pressure;altitude;pressure_sealevel;temperature;humidity
64503;BME280;50971;51.940;21.258;2024-01-30T00:08:57;102442.41;;;-1.40;100.00
64503;BME280;50971;51.940;21.258;2024-01-30T00:18:58;102436.04;;;-1.39;100.00
64503;BME280;50971;51.940;21.258;2024-01-30T00:29:00;102433.77;;;-1.32;100.00
64503;BME280;50971;51.940;21.258;2024-01-30T00:39:02;102415.68;;;-1.34;100.00
64503;BME280;50971;51.940;21.258;2024-01-30T00:49:07;102400.02;;;-1.40;100.00
64503;BME280;50971;51.940;21.258;2024-01-30T00:59:09;102376.62;;;-1.49;100.00
64503;BME280;50971;51.940;21.258;2024-01-30T01:09:11;102374.78;;;-1.50;100.00
64503;BME280;50971;51.940;21.258;2024-01-30T01:19:13;102372.63;;;-1.50;100.00
64503;BME280;50971;51.940;21.258;2024-01-30T01:29:15;102360.80;;;-1.53;100.00
64503;BME280;50971;51.940;21.258;2024-01-30T01:39:17;102361.17;;;-1.55;100.00
64503;BME280;50971;51.940;21.258;2024-01-30T01:49:20;102364.73;;;-1.56;100.00
64503;BME280;50971;51.940;21.258;2024-01-30T01:59:23;102355.55;;;-1.59;100.00
64503;BME280;50971;51.940;21.258;2024-01-30T02:09:25;102361.91;;;-1.61;100.00
64503;BME280;50971;51.940;21.258;2024-01-30T02:19:27;102360.79;;;-1.64;100.00
64503;BME280;50971;51.940;21.258;2024-01-30T02:29:29;102351.52;;;-1.66;100.00
64503;BME280;50971;51.940;21.258;2024-01-30T02:39:31;102348.91;;;-1.68;100.00
64503;BME280;50971;51.940;21.258;2024-01-30T02:49:32;102352.26;;;-1.72;100.00
64503;BME280;50971;51.940;21.258;2024-01-30T02:59:34;102350.16;;;-1.79;100.00
64503;BME280;50971;51.940;21.258;2024-01-30T03:09:37;102344.90;;;-1.80;100.00
64503;BME280;50971;51.940;21.258;2024-01-30T03:19:39;102344.90;;;-1.80;100.00
64503;BME280;50971;51.940;21.258;2024-01-30T03:29:41;102337.98;;;-1.80;100.00
64503;BME280;50971;51.940;21.258;2024-01-30T03:39:43;102338.88;;;-1.82;100.00
64503;BME280;50971;51.940;21.258;2024-01-30T03:49:44;102342.51;;;-1.90;100.00
64503;BME280;50971;51.940;21.258;2024-01-30T03:59:46;102335.44;;;-2.00;100.00
64503;BME280;50971;51.940;21.258;2024-01-30T04:09:48;102332.44;;;-2.02;100.00
64503;BME280;50971;51.940;21.258;2024-01-30T04:19:50;102339.39;;;-2.05;100.00
64503;BME280;50971;51.940;21.258;2024-01-30T04:29:52;102329.11;;;-2.08;100.00
64503;BME280;50971;51.940;21.258;2024-01-30T04:39:54;102329.42;;;-2.09;100.00
64503;BME280;50971;51.940;21.258;2024-01-30T04:49:55;102336.30;;;-2.10;100.00
64503;BME280;50971;51.940;21.258;2024-01-30T04:59:57;102335.60;;;-2.13;100.00
64503;BME280;50971;51.940;21.258;2024-01-30T05:09:59;102335.92;;;-2.19;100.00
64503;BME280;50971;51.940;21.258;2024-01-30T05:20:05;102338.73;;;-2.25;100.00
64503;BME280;50971;51.940;21.258;2024-01-30T05:30:08;102344.54;;;-2.30;100.00
64503;BME280;50971;51.940;21.258;2024-01-30T05:40:10;102342.10;;;-2.34;100.00
64503;BME280;50971;51.940;21.258;2024-01-30T05:50:12;102334.86;;;-2.35;100.00
64503;BME280;50971;51.940;21.258;2024-01-30T06:00:15;102341.05;;;-2.31;100.00
64503;BME280;50971;51.940;21.258;2024-01-30T06:10:17;102342.23;;;-2.27;100.00
64503;BME280;50971;51.940;21.258;2024-01-30T06:20:19;102344.52;;;-2.27;100.00
64503;BME280;50971;51.940;21.258;2024-01-30T06:30:21;102342.27;;;-2.13;100.00
64503;BME280;50971;51.940;21.258;2024-01-30T06:40:23;102346.19;;;-1.97;100.00
64503;BME280;50971;51.940;21.258;2024-01-30T06:50:25;102351.70;;;-1.87;100.00
64503;BME280;50971;51.940;21.258;2024-01-30T07:00:27;102353.27;;;-1.81;100.00
64503;BME280;50971;51.940;21.258;2024-01-30T07:10:29;102349.56;;;-1.70;100.00
64503;BME280;50971;51.940;21.258;2024-01-30T07:20:33;102344.11;;;-1.59;100.00
64503;BME280;50971;51.940;21.258;2024-01-30T07:30:35;102351.97;;;-1.46;100.00
64503;BME280;50971;51.940;21.258;2024-01-30T07:40:37;102357.70;;;-1.28;100.00
64503;BME280;50971;51.940;21.258;2024-01-30T07:50:39;102358.41;;;-1.12;100.00
64503;BME280;50971;51.940;21.258;2024-01-30T08:00:41;102353.55;;;-0.95;100.00
64503;BME280;50971;51.940;21.258;2024-01-30T08:10:43;102347.88;;;-0.79;100.00
64503;BME280;50971;51.940;21.258;2024-01-30T08:20:45;102344.67;;;-0.51;100.00
64503;BME280;50971;51.940;21.258;2024-01-30T08:30:47;102338.94;;;-0.19;100.00
64503;BME280;50971;51.940;21.258;2024-01-30T08:40:49;102333.52;;;0.08;100.00
64503;BME280;50971;51.940;21.258;2024-01-30T08:50:51;102332.91;;;0.27;100.00
64503;BME280;50971;51.940;21.258;2024-01-30T09:00:53;102331.25;;;0.54;100.00
64503;BME280;50971;51.940;21.258;2024-01-30T09:10:55;102331.35;;;0.83;100.00
64503;BME280;50971;51.940;21.258;2024-01-30T09:20:57;102321.65;;;1.13;100.00
64503;BME280;50971;51.940;21.258;2024-01-30T09:30:59;102313.10;;;1.32;100.00
64503;BME280;50971;51.940;21.258;2024-01-30T09:41:03;102311.55;;;1.64;100.00
64503;BME280;50971;51.940;21.258;2024-01-30T09:51:10;102314.63;;;1.97;100.00
64503;BME280;50971;51.940;21.258;2024-01-30T10:01:13;102305.63;;;2.28;100.00
64503;BME280;50971;51.940;21.258;2024-01-30T10:11:20;102292.27;;;2.67;100.00
64503;BME280;50971;51.940;21.258;2024-01-30T10:21:23;102278.40;;;2.97;100.00
64503;BME280;50971;51.940;21.258;2024-01-30T10:31:25;102262.98;;;3.28;100.00
64503;BME280;50971;51.940;21.258;2024-01-30T10:41:27;102252.27;;;3.51;100.00
64503;BME280;50971;51.940;21.258;2024-01-30T10:51:32;102245.04;;;3.76;100.00
64503;BME280;50971;51.940;21.258;2024-01-30T11:01:36;102232.66;;;3.92;100.00
64503;BME280;50971;51.940;21.258;2024-01-30T11:11:51;102219.64;;;4.03;100.00
64503;BME280;50971;51.940;21.258;2024-01-30T11:21:53;102211.13;;;4.23;100.00
64503;BME280;50971;51.940;21.258;2024-01-30T11:31:57;102195.15;;;4.37;100.00
64503;BME280;50971;51.940;21.258;2024-01-30T11:42:00;102182.11;;;4.60;100.00
64503;BME280;50971;51.940;21.258;2024-01-30T11:52:03;102174.10;;;4.71;100.00
64503;BME280;50971;51.940;21.258;2024-01-30T12:02:05;102164.11;;;4.68;100.00
64503;BME280;50971;51.940;21.258;2024-01-30T12:12:07;102153.40;;;4.81;100.00
64503;BME280;50971;51.940;21.258;2024-01-30T12:22:13;102149.45;;;4.83;100.00
64503;BME280;50971;51.940;21.258;2024-01-30T12:32:16;102140.52;;;4.83;100.00
64503;BME280;50971;51.940;21.258;2024-01-30T12:42:19;102136.02;;;4.89;100.00
64503;BME280;50971;51.940;21.258;2024-01-30T12:52:21;102128.94;;;5.00;100.00
64503;BME280;50971;51.940;21.258;2024-01-30T13:02:24;102124.02;;;4.99;100.00
64503;BME280;50971;51.940;21.258;2024-01-30T13:12:26;102119.83;;;4.95;100.00
64503;BME280;50971;51.940;21.258;2024-01-30T13:22:27;102112.90;;;4.95;100.00
64503;BME280;50971;51.940;21.258;2024-01-30T13:32:29;102109.07;;;4.86;100.00
64503;BME280;50971;51.940;21.258;2024-01-30T13:42:31;102112.29;;;4.82;100.00
64503;BME280;50971;51.940;21.258;2024-01-30T13:52:33;102106.17;;;4.85;100.00
64503;BME280;50971;51.940;21.258;2024-01-30T14:02:45;102104.54;;;4.67;100.00
64503;BME280;50971;51.940;21.258;2024-01-30T14:12:47;102101.59;;;4.36;100.00
64503;BME280;50971;51.940;21.258;2024-01-30T14:22:51;102101.26;;;4.05;100.00
64503;BME280;50971;51.940;21.258;2024-01-30T14:32:55;102092.90;;;3.64;100.00
64503;BME280;50971;51.940;21.258;2024-01-30T14:42:57;102091.10;;;3.29;100.00
64503;BME280;50971;51.940;21.258;2024-01-30T14:53:00;102093.52;;;3.15;100.00
64503;BME280;50971;51.940;21.258;2024-01-30T15:03:02;102098.23;;;3.04;100.00
64503;BME280;50971;51.940;21.258;2024-01-30T15:13:04;102093.19;;;2.91;100.00
64503;BME280;50971;51.940;21.258;2024-01-30T15:23:06;102093.89;;;2.62;100.00
64503;BME280;50971;51.940;21.258;2024-01-30T15:33:08;102087.40;;;2.24;100.00
64503;BME280;50971;51.940;21.258;2024-01-30T15:43:09;102085.91;;;1.88;100.00
64503;BME280;50971;51.940;21.258;2024-01-30T15:53:11;102078.59;;;1.55;100.00
64503;BME280;50971;51.940;21.258;2024-01-30T16:03:13;102068.77;;;1.39;100.00
64503;BME280;50971;51.940;21.258;2024-01-30T16:13:15;102064.08;;;1.36;100.00
64503;BME280;50971;51.940;21.258;2024-01-30T16:23:16;102064.19;;;1.27;100.00
64503;BME280;50971;51.940;21.258;2024-01-30T16:33:18;102063.77;;;1.26;100.00
64503;BME280;50971;51.940;21.258;2024-01-30T16:43:20;102068.61;;;1.13;100.00
64503;BME280;50971;51.940;21.258;2024-01-30T16:53:22;102070.12;;;1.01;100.00
64503;BME280;50971;51.940;21.258;2024-01-30T17:03:24;102070.85;;;0.90;100.00
64503;BME280;50971;51.940;21.258;2024-01-30T17:13:26;102064.48;;;0.76;100.00
64503;BME280;50971;51.940;21.258;2024-01-30T17:23:28;102054.86;;;0.80;100.00
64503;BME280;50971;51.940;21.258;2024-01-30T17:33:33;102047.14;;;0.92;100.00
64503;BME280;50971;51.940;21.258;2024-01-30T17:43:34;102040.83;;;0.93;100.00
64503;BME280;50971;51.940;21.258;2024-01-30T17:53:36;102034.10;;;0.97;100.00
64503;BME280;50971;51.940;21.258;2024-01-30T18:03:39;102031.31;;;1.11;100.00
64503;BME280;50971;51.940;21.258;2024-01-30T18:13:42;102027.95;;;1.02;100.00
64503;BME280;50971;51.940;21.258;2024-01-30T18:23:44;102030.67;;;0.77;100.00
64503;BME280;50971;51.940;21.258;2024-01-30T18:33:46;102034.04;;;0.70;100.00
64503;BME280;50971;51.940;21.258;2024-01-30T18:43:52;102028.38;;;0.68;100.00
64503;BME280;50971;51.940;21.258;2024-01-30T18:53:54;102022.95;;;0.68;100.00
64503;BME280;50971;51.940;21.258;2024-01-30T19:03:55;102021.95;;;0.73;100.00
64503;BME280;50971;51.940;21.258;2024-01-30T19:13:58;102027.02;;;0.68;100.00
64503;BME280;50971;51.940;21.258;2024-01-30T19:23:59;102025.92;;;0.66;100.00
64503;BME280;50971;51.940;21.258;2024-01-30T19:34:02;102025.36;;;0.54;100.00
64503;BME280;50971;51.940;21.258;2024-01-30T19:44:06;102022.60;;;0.40;100.00
64503;BME280;50971;51.940;21.258;2024-01-30T19:54:11;102014.54;;;0.19;100.00
64503;BME280;50971;51.940;21.258;2024-01-30T20:04:16;102011.48;;;0.05;100.00
64503;BME280;50971;51.940;21.258;2024-01-30T20:14:18;102010.13;;;-0.01;100.00
64503;BME280;50971;51.940;21.258;2024-01-30T20:24:20;101999.44;;;-0.03;100.00
64503;BME280;50971;51.940;21.258;2024-01-30T20:34:22;101991.44;;;0.01;100.00
64503;BME280;50971;51.940;21.258;2024-01-30T20:44:24;101989.09;;;0.01;100.00
64503;BME280;50971;51.940;21.258;2024-01-30T20:54:25;101985.39;;;0.11;100.00
64503;BME280;50971;51.940;21.258;2024-01-30T21:04:27;101985.17;;;0.14;100.00
64503;BME280;50971;51.940;21.258;2024-01-30T21:14:29;101986.95;;;0.04;100.00
64503;BME280;50971;51.940;21.258;2024-01-30T21:24:31;101977.50;;;-0.03;100.00
64503;BME280;50971;51.940;21.258;2024-01-30T21:34:33;101966.78;;;-0.16;100.00
64503;BME280;50971;51.940;21.258;2024-01-30T21:44:35;101960.44;;;-0.18;100.00
64503;BME280;50971;51.940;21.258;2024-01-30T21:54:36;101956.70;;;-0.27;100.00
64503;BME280;50971;51.940;21.258;2024-01-30T22:04:39;101963.08;;;-0.26;100.00
64503;BME280;50971;51.940;21.258;2024-01-30T22:14:44;101974.05;;;-0.41;100.00
64503;BME280;50971;51.940;21.258;2024-01-30T22:24:46;101981.86;;;-0.59;100.00
64503;BME280;50971;51.940;21.258;2024-01-30T22:34:48;101983.28;;;-0.60;100.00
64503;BME280;50971;51.940;21.258;2024-01-30T22:44:50;101981.25;;;-0.58;100.00
64503;BME280;50971;51.940;21.258;2024-01-30T22:54:51;101972.67;;;-0.67;100.00
64503;BME280;50971;51.940;21.258;2024-01-30T23:04:53;101974.45;;;-0.67;100.00
